Time;durP1;ratioP1;P1;durP2;ratioP2;P2;SDS_P1;SDS_P2;PMS_P1;PMS_P2;Temp;Humidity;BMP_temperature;BMP_pressure;BME280_temperature;BME280_humidity;BME280_pressure;Samples;Min_cycle;Max_cycle;Signal;HPM_P1;HPM_P2
2022/05/14 00:00:51;;;;;;;1.97;1.63;;;18.30;99.90;;;;;;5063337;28;21198;-79
2022/05/14 00:03:20;;;;;;;2.07;1.83;;;18.50;99.90;;;;;;5063751;28;20452;-79
2022/05/14 00:05:48;;;;;;;3.00;1.93;;;18.20;99.90;;;;;;5063619;28;21222;-78
2022/05/14 00:08:16;;;;;;;1.60;1.20;;;18.10;99.90;;;;;;5061415;28;20552;-78
2022/05/14 00:13:31;;;;;;;1.83;1.60;;;18.10;99.90;;;;;;5064400;28;20451;-79
2022/05/14 00:15:59;;;;;;;1.93;1.50;;;18.10;99.90;;;;;;5061155;28;20869;-79
2022/05/14 00:18:29;;;;;;;1.97;1.60;;;18.10;99.90;;;;;;5060670;28;20499;-79
2022/05/14 00:20:59;;;;;;;2.33;1.73;;;18.10;99.90;;;;;;5059702;28;20459;-79
2022/05/14 00:23:28;;;;;;;3.00;1.70;;;18.10;99.90;;;;;;5062903;28;20586;-80
2022/05/14 00:25:56;;;;;;;2.23;1.60;;;18.10;99.90;;;;;;5060260;28;21038;-79
2022/05/14 00:28:24;;;;;;;2.43;1.60;;;18.10;99.90;;;;;;5063222;28;20502;-79
2022/05/14 00:30:52;;;;;;;1.83;1.60;;;18.00;99.90;;;;;;5062905;28;20449;-79
2022/05/14 00:33:21;;;;;;;2.57;1.83;;;18.00;99.90;;;;;;5061209;28;20456;-79
2022/05/14 00:35:51;;;;;;;2.53;1.80;;;18.00;99.90;;;;;;5061508;28;20524;-79
2022/05/14 00:38:19;;;;;;;2.70;1.60;;;18.00;99.90;;;;;;5056933;28;20459;-78
2022/05/14 00:40:55;;;;;;;8.40;1.97;;;17.90;99.90;;;;;;5061792;28;20834;-80
2022/05/14 00:43:23;;;;;;;2.43;1.70;;;17.90;99.90;;;;;;5060923;28;20445;-80
2022/05/14 00:45:56;;;;;;;3.77;1.60;;;17.90;99.90;;;;;;5058899;28;20991;-79
2022/05/14 00:48:31;;;;;;;2.90;2.37;;;17.80;99.90;;;;;;5064083;28;20995;-80
2022/05/14 00:51:00;;;;;;;2.87;1.63;;;17.90;99.90;;;;;;5061274;28;20471;-80
2022/05/14 00:53:33;;;;;;;2.37;2.17;;;17.80;99.90;;;;;;5061652;28;20457;-79
2022/05/14 00:56:06;;;;;;;2.00;1.53;;;17.90;99.90;;;;;;5059449;28;21300;-80
2022/05/14 00:58:40;;;;;;;3.67;1.57;;;17.80;99.90;;;;;;5060393;28;20456;-79
2022/05/14 01:01:08;;;;;;;1.63;1.53;;;17.70;99.90;;;;;;5054717;28;20459;-80
2022/05/14 01:03:36;;;;;;;3.53;2.20;;;17.70;99.90;;;;;;5060920;28;20464;-79
2022/05/14 01:06:09;;;;;;;3.50;2.47;;;17.70;99.90;;;;;;5060705;28;20511;-80
2022/05/14 01:08:37;;;;;;;5.10;2.20;;;17.60;99.90;;;;;;5060600;28;20470;-79
2022/05/14 01:11:05;;;;;;;5.80;1.70;;;17.60;99.90;;;;;;5061003;28;20450;-78
2022/05/14 01:13:34;;;;;;;4.10;1.70;;;17.50;99.90;;;;;;5064182;28;20463;-80
2022/05/14 01:16:04;;;;;;;2.23;1.30;;;17.60;99.90;;;;;;5056766;28;20489;-80
2022/05/14 01:18:35;;;;;;;3.47;1.90;;;17.50;99.90;;;;;;5059759;28;20457;-78
2022/05/14 01:21:14;;;;;;;3.00;1.80;;;17.50;99.90;;;;;;5059816;28;20477;-78
2022/05/14 01:26:36;;;;;;;1.77;1.50;;;17.50;99.90;;;;;;5063674;28;20813;-78
2022/05/14 01:29:07;;;;;;;1.97;1.60;;;17.40;99.90;;;;;;5059874;28;20452;-79
2022/05/14 01:31:38;;;;;;;2.30;1.73;;;17.40;99.90;;;;;;5062309;28;20979;-78
2022/05/14 01:34:10;;;;;;;1.40;1.30;;;17.50;99.90;;;;;;5060786;28;20457;-79
2022/05/14 01:36:40;;;;;;;3.43;2.40;;;17.40;99.90;;;;;;5060394;28;20456;-78
2022/05/14 01:39:09;;;;;;;2.03;1.43;;;17.40;99.90;;;;;;5060796;28;20447;-79
2022/05/14 01:41:39;;;;;;;1.83;1.60;;;17.50;99.90;;;;;;5064377;28;20751;-79
2022/05/14 01:44:08;;;;;;;3.67;1.53;;;17.30;99.90;;;;;;5059796;28;20476;-80
2022/05/14 01:46:36;;;;;;;2.50;1.67;;;17.30;99.90;;;;;;5063629;28;20462;-79
2022/05/14 01:49:04;;;;;;;3.23;1.40;;;17.30;99.90;;;;;;5062878;28;20454;-79
2022/05/14 01:51:33;;;;;;;2.13;1.93;;;17.30;99.90;;;;;;5062443;28;20456;-80
2022/05/14 01:54:02;;;;;;;3.90;1.50;;;17.20;99.90;;;;;;5062420;28;20458;-79
2022/05/14 01:56:30;;;;;;;2.40;1.53;;;17.20;99.90;;;;;;5060227;28;20485;-80
2022/05/14 01:59:00;;;;;;;4.03;1.83;;;17.20;99.90;;;;;;5063254;28;20466;-79
2022/05/14 02:01:30;;;;;;;3.43;1.67;;;17.10;99.90;;;;;;5093848;28;20457;-76
2022/05/14 02:04:02;;;;;;;1.97;1.87;;;17.10;99.90;;;;;;5062224;28;20547;-79
2022/05/14 02:06:31;;;;;;;3.27;1.60;;;17.10;99.90;;;;;;5062514;28;20454;-78
2022/05/14 02:09:00;;;;;;;2.20;1.80;;;17.10;99.90;;;;;;5062980;28;20466;-79
2022/05/14 02:11:29;;;;;;;2.60;1.57;;;17.10;99.90;;;;;;5062214;28;20455;-79
2022/05/14 02:13:58;;;;;;;2.03;1.80;;;17.00;99.90;;;;;;5062118;28;20450;-80
2022/05/14 02:16:27;;;;;;;2.03;1.47;;;17.00;99.90;;;;;;5060010;28;20502;-80
2022/05/14 02:18:55;;;;;;;7.10;1.50;;;17.00;99.90;;;;;;5062288;28;20462;-79
2022/05/14 02:21:24;;;;;;;4.30;1.77;;;17.00;99.90;;;;;;5059590;28;20462;-80
2022/05/14 02:23:53;;;;;;;1.93;1.73;;;17.00;99.90;;;;;;5064221;28;20443;-78
2022/05/14 02:26:22;;;;;;;1.50;1.40;;;16.90;99.90;;;;;;5054370;28;20456;-80
2022/05/14 02:28:51;;;;;;;1.73;1.63;;;17.00;99.90;;;;;;5062006;28;20882;-78
2022/05/14 02:31:21;;;;;;;2.53;1.70;;;16.90;99.90;;;;;;5060772;28;20455;-79
2022/05/14 02:33:50;;;;;;;1.57;1.47;;;16.90;99.90;;;;;;5061412;28;20451;-78
2022/05/14 02:36:19;;;;;;;2.37;1.60;;;16.80;99.90;;;;;;5055856;28;21653;-79
2022/05/14 02:38:47;;;;;;;3.73;2.00;;;16.90;99.90;;;;;;5062590;28;20462;-78
2022/05/14 02:41:16;;;;;;;1.70;1.60;;;16.90;99.90;;;;;;5055991;28;20911;-78
2022/05/14 02:43:44;;;;;;;2.43;1.97;;;16.80;99.90;;;;;;5055069;28;20469;-79
2022/05/14 02:46:13;;;;;;;2.40;1.63;;;16.80;99.90;;;;;;5057194;28;20480;-79
2022/05/14 02:48:43;;;;;;;1.87;1.50;;;16.80;99.90;;;;;;5058575;28;20458;-79
2022/05/14 02:51:11;;;;;;;2.37;2.03;;;16.70;99.90;;;;;;5058389;28;20536;-79
2022/05/14 02:53:41;;;;;;;1.50;1.40;;;16.70;99.90;;;;;;5058282;28;20484;-79
2022/05/14 02:56:09;;;;;;;2.53;1.60;;;16.80;99.90;;;;;;5059192;28;20481;-79
2022/05/14 03:01:22;;;;;;;2.70;1.40;;;16.70;99.90;;;;;;5056605;28;20581;-78
2022/05/14 03:03:52;;;;;;;2.53;1.77;;;16.70;99.90;;;;;;5060734;28;20517;-81
2022/05/14 03:06:20;;;;;;;2.27;1.87;;;16.70;99.90;;;;;;5055778;28;20452;-79
2022/05/14 03:08:49;;;;;;;2.57;2.33;;;16.70;99.90;;;;;;5061028;28;20447;-79
2022/05/14 03:11:17;;;;;;;3.00;1.37;;;16.70;99.90;;;;;;5056937;28;20544;-79
2022/05/14 03:13:45;;;;;;;2.40;1.30;;;16.70;99.90;;;;;;5060025;28;20542;-79
2022/05/14 03:16:13;;;;;;;2.50;1.40;;;16.60;99.90;;;;;;5057507;28;20881;-80
2022/05/14 03:18:42;;;;;;;1.70;1.33;;;16.50;99.90;;;;;;5058181;28;20457;-79
2022/05/14 03:21:11;;;;;;;1.87;1.50;;;16.60;99.90;;;;;;5056495;28;20450;-79
2022/05/14 03:23:40;;;;;;;2.17;1.77;;;16.60;99.90;;;;;;5057625;28;20452;-77
2022/05/14 03:26:08;;;;;;;1.60;1.50;;;16.60;99.90;;;;;;5059476;28;20520;-79
2022/05/14 03:28:36;;;;;;;1.60;1.50;;;16.60;99.90;;;;;;5058165;28;20489;-80
2022/05/14 03:31:04;;;;;;;3.40;1.80;;;16.60;99.90;;;;;;5057904;28;21214;-78
2022/05/14 03:33:33;;;;;;;2.03;1.87;;;16.60;99.90;;;;;;5059981;28;21055;-79
2022/05/14 03:36:01;;;;;;;3.57;1.80;;;16.70;99.90;;;;;;5058401;28;20473;-77
2022/05/14 03:38:31;;;;;;;2.17;1.57;;;16.50;99.90;;;;;;5061650;28;20462;-79
2022/05/14 03:40:59;;;;;;;3.23;1.10;;;16.50;99.90;;;;;;5060772;28;20457;-81
2022/05/14 03:43:27;;;;;;;1.57;1.47;;;16.50;99.90;;;;;;5053541;28;20492;-81
2022/05/14 03:45:55;;;;;;;3.93;1.40;;;16.40;99.90;;;;;;5059351;28;20477;-79
2022/05/14 03:48:30;;;;;;;4.23;1.50;;;16.40;99.90;;;;;;5056311;28;20459;-79
2022/05/14 03:50:58;;;;;;;1.90;1.33;;;16.30;99.90;;;;;;5062464;28;20536;-80
2022/05/14 03:53:26;;;;;;;3.07;1.20;;;16.40;99.90;;;;;;5060428;28;20481;-79
2022/05/14 03:55:56;;;;;;;1.30;1.20;;;16.30;99.90;;;;;;5058112;28;20867;-79
2022/05/14 03:58:25;;;;;;;2.13;1.40;;;16.30;99.90;;;;;;5059676;28;20461;-79
2022/05/14 04:00:53;;;;;;;1.60;1.23;;;16.30;99.90;;;;;;5055688;28;20462;-80
2022/05/14 04:03:22;;;;;;;1.43;1.20;;;16.20;99.90;;;;;;5058259;28;20546;-80
2022/05/14 04:05:50;;;;;;;1.77;1.40;;;16.20;99.90;;;;;;5056262;28;20472;-80
2022/05/14 04:08:18;;;;;;;1.50;1.40;;;16.20;99.90;;;;;;5056272;28;20459;-80
2022/05/14 04:10:46;;;;;;;1.47;1.30;;;16.20;99.90;;;;;;5056315;28;20513;-80
2022/05/14 04:13:16;;;;;;;1.20;1.10;;;16.20;99.90;;;;;;5054017;28;20461;-80
2022/05/14 04:15:44;;;;;;;2.70;1.30;;;16.20;99.90;;;;;;5058503;28;21286;-80
2022/05/14 04:18:12;;;;;;;1.40;1.17;;;16.20;99.90;;;;;;5058920;28;20461;-79
2022/05/14 04:20:41;;;;;;;1.47;1.30;;;16.20;99.90;;;;;;5056552;28;20457;-79
2022/05/14 04:23:09;;;;;;;1.33;1.10;;;16.10;99.90;;;;;;5056345;28;20455;-80
2022/05/14 04:25:37;;;;;;;2.83;1.30;;;16.10;99.90;;;;;;5057213;28;20484;-78
2022/05/14 04:28:06;;;;;;;1.33;1.23;;;16.10;99.90;;;;;;5057070;28;20459;-80
2022/05/14 04:30:35;;;;;;;1.63;1.30;;;16.00;99.90;;;;;;5054586;28;20492;-78
2022/05/14 04:33:03;;;;;;;2.03;1.93;;;16.10;99.90;;;;;;5060050;28;20457;-79
2022/05/14 04:35:32;;;;;;;2.27;1.10;;;16.10;99.90;;;;;;5060879;28;20480;-78
2022/05/14 04:38:00;;;;;;;1.50;1.40;;;16.10;99.90;;;;;;5058488;28;20482;-78
2022/05/14 04:40:28;;;;;;;4.70;1.40;;;16.10;99.90;;;;;;5059351;28;20462;-77
2022/05/14 04:42:56;;;;;;;1.60;1.50;;;16.10;99.90;;;;;;5059122;28;20454;-79
2022/05/14 04:45:25;;;;;;;5.00;1.50;;;16.20;99.90;;;;;;5060482;28;21621;-79
2022/05/14 04:47:54;;;;;;;2.40;1.50;;;16.10;99.90;;;;;;5056734;28;20484;-78
2022/05/14 04:50:22;;;;;;;2.00;1.80;;;16.10;99.90;;;;;;5057814;28;20454;-79
2022/05/14 04:52:51;;;;;;;3.03;1.30;;;16.10;99.90;;;;;;5059916;28;20471;-80
2022/05/14 04:55:19;;;;;;;3.30;1.50;;;16.20;99.90;;;;;;5059536;28;20487;-79
2022/05/14 04:57:47;;;;;;;2.50;1.43;;;16.20;99.90;;;;;;5071789;28;20484;-79
2022/05/14 05:00:17;;;;;;;2.00;1.30;;;16.20;99.90;;;;;;5059939;28;20493;-79
2022/05/14 05:05:32;;;;;;;2.13;1.77;;;16.30;99.90;;;;;;5060197;28;20483;-80
2022/05/14 05:08:00;;;;;;;2.03;1.60;;;16.30;99.90;;;;;;5062039;28;20461;-80
2022/05/14 05:10:29;;;;;;;2.23;1.87;;;16.30;99.90;;;;;;5063527;28;20454;-80
2022/05/14 05:12:57;;;;;;;1.57;1.40;;;16.40;99.90;;;;;;5061414;28;20492;-79
2022/05/14 05:15:26;;;;;;;2.80;1.47;;;16.40;99.90;;;;;;5061652;28;20478;-80
2022/05/14 05:17:54;;;;;;;3.50;1.70;;;16.40;99.90;;;;;;5060320;28;20462;-79
2022/05/14 05:20:22;;;;;;;1.90;1.70;;;16.50;99.90;;;;;;5059821;28;20463;-80
2022/05/14 05:22:52;;;;;;;1.67;1.57;;;16.50;99.90;;;;;;5062640;28;20442;-80
2022/05/14 05:25:20;;;;;;;2.80;1.60;;;16.50;99.90;;;;;;5061976;28;20486;-80
2022/05/14 05:27:48;;;;;;;1.73;1.63;;;16.50;99.90;;;;;;5059507;28;20459;-80
2022/05/14 05:30:17;;;;;;;2.23;1.50;;;16.60;99.90;;;;;;5060430;28;20854;-79
2022/05/14 05:32:45;;;;;;;1.77;1.67;;;16.60;99.90;;;;;;5061348;28;20455;-78
2022/05/14 05:35:14;;;;;;;4.23;1.70;;;16.70;99.90;;;;;;5059815;28;20475;-78
2022/05/14 05:37:46;;;;;;;2.53;1.63;;;16.70;99.90;;;;;;5061070;28;20948;-80
2022/05/14 05:40:16;;;;;;;2.87;1.70;;;16.70;99.90;;;;;;5063680;28;20451;-80
2022/05/14 05:42:45;;;;;;;2.07;1.53;;;16.80;99.90;;;;;;5065451;28;20971;-80
2022/05/14 05:45:16;;;;;;;3.43;1.87;;;16.80;99.90;;;;;;5064661;28;20532;-80
2022/05/14 05:47:44;;;;;;;2.80;1.73;;;16.90;99.90;;;;;;5063616;28;20800;-80
2022/05/14 05:50:13;;;;;;;2.70;1.60;;;16.90;99.90;;;;;;5063063;28;20479;-79
2022/05/14 05:52:42;;;;;;;2.27;1.50;;;17.00;99.90;;;;;;5066703;28;20474;-78
2022/05/14 05:58:09;;;;;;;1.67;1.30;;;17.10;99.90;;;;;;5017919;28;20546;-79
2022/05/14 06:00:37;;;;;;;4.10;1.50;;;17.10;99.90;;;;;;5048645;28;20464;-79
2022/05/14 06:03:06;;;;;;;1.73;1.20;;;17.20;99.90;;;;;;5057921;28;20519;-79
2022/05/14 06:05:38;;;;;;;1.23;1.13;;;17.20;99.90;;;;;;5066471;28;20560;-79
2022/05/14 06:08:08;;;;;;;3.27;1.30;;;17.30;99.90;;;;;;5061463;28;20446;-78
2022/05/14 06:10:36;;;;;;;2.80;1.20;;;17.40;99.90;;;;;;5058050;28;20525;-76
2022/05/14 06:13:05;;;;;;;1.67;1.17;;;17.50;99.90;;;;;;5058044;28;20454;-75
2022/05/14 06:15:34;;;;;;;2.45;1.30;;;17.50;99.90;;;;;;5057367;28;20432;-78
2022/05/14 06:18:03;;;;;;;1.77;1.60;;;17.60;99.90;;;;;;5055758;28;20445;-79
2022/05/14 06:20:32;;;;;;;2.30;1.30;;;17.70;99.90;;;;;;5054981;28;20203;-80
2022/05/14 06:23:02;;;;;;;3.73;1.10;;;17.50;99.90;;;;;;5051167;28;20512;-79
2022/05/14 06:25:30;;;;;;;1.10;1.00;;;17.30;99.90;;;;;;5052100;28;20850;-79
2022/05/14 06:27:58;;;;;;;1.13;1.00;;;17.40;99.90;;;;;;5060068;28;21084;-79
2022/05/14 06:30:28;;;;;;;1.10;0.90;;;17.30;99.90;;;;;;5056997;28;20460;-79
2022/05/14 06:33:02;;;;;;;1.10;1.10;;;17.40;99.90;;;;;;5059208;28;20495;-78
2022/05/14 06:35:30;;;;;;;1.80;1.00;;;17.60;99.90;;;;;;5056808;28;20483;-80
2022/05/14 06:37:58;;;;;;;0.90;0.87;;;17.70;99.90;;;;;;5055297;28;20539;-78
2022/05/14 06:40:27;;;;;;;1.30;1.00;;;17.90;99.90;;;;;;5053291;28;20461;-79
2022/05/14 06:42:55;;;;;;;1.20;0.90;;;18.10;99.90;;;;;;5059050;28;20473;-80
2022/05/14 06:45:24;;;;;;;1.40;0.90;;;18.40;99.90;;;;;;5051057;28;20476;-79
2022/05/14 06:47:53;;;;;;;1.80;1.00;;;18.70;99.90;;;;;;5057298;28;20456;-78
2022/05/14 06:50:22;;;;;;;1.70;1.20;;;19.00;99.90;;;;;;5057637;28;20450;-78
2022/05/14 06:52:58;;;;;;;1.10;0.87;;;19.10;99.90;;;;;;5055078;28;20454;-79
2022/05/14 06:55:32;;;;;;;1.10;0.80;;;19.40;99.90;;;;;;5056489;28;20481;-80
2022/05/14 06:58:00;;;;;;;1.47;0.80;;;19.50;99.90;;;;;;5055225;28;20514;-78
2022/05/14 07:00:28;;;;;;;1.40;0.90;;;19.70;99.90;;;;;;5058926;28;21046;-78
2022/05/14 07:06:37;;;;;;;1.63;1.07;;;19.80;99.90;;;;;;5054346;28;20468;-80
2022/05/14 07:08:32;;;;;;;2.60;0.80;;;20.20;99.90;;;;;;5054961;28;21056;-80
2022/05/14 07:11:01;;;;;;;2.23;0.80;;;20.40;99.90;;;;;;5060331;28;20458;-79
2022/05/14 07:13:29;;;;;;;0.90;0.80;;;20.40;99.90;;;;;;5054882;28;20462;-78
2022/05/14 07:15:57;;;;;;;2.30;0.90;;;20.40;99.90;;;;;;5052946;28;20471;-78
2022/05/14 07:18:25;;;;;;;1.13;1.13;;;20.50;99.90;;;;;;5055801;28;20877;-77
2022/05/14 07:20:56;;;;;;;1.03;0.70;;;20.60;99.90;;;;;;5057887;28;20438;-77
2022/05/14 07:23:24;;;;;;;1.07;0.87;;;20.70;99.90;;;;;;5054047;28;20451;-78
2022/05/14 07:25:52;;;;;;;0.70;0.70;;;20.80;99.90;;;;;;5058526;28;20454;-80
2022/05/14 07:28:20;;;;;;;1.27;0.80;;;20.80;99.90;;;;;;5058313;28;20467;-78
2022/05/14 07:30:48;;;;;;;1.50;0.80;;;20.80;99.90;;;;;;5051399;28;20446;-78
2022/05/14 07:33:16;;;;;;;0.80;0.73;;;20.80;99.90;;;;;;5055972;28;20228;-79
2022/05/14 07:35:45;;;;;;;1.80;0.70;;;20.90;99.90;;;;;;5061258;28;20475;-78
2022/05/14 07:38:15;;;;;;;0.67;0.60;;;20.90;99.90;;;;;;5062840;28;20479;-80
2022/05/14 07:40:44;;;;;;;0.97;0.90;;;21.00;99.90;;;;;;5054107;28;20486;-80
2022/05/14 07:43:17;;;;;;;1.50;0.70;;;21.00;99.90;;;;;;5055618;28;20443;-80
2022/05/14 07:45:47;;;;;;;0.70;0.70;;;21.00;99.90;;;;;;5060931;28;20898;-80
2022/05/14 07:48:18;;;;;;;1.50;0.70;;;21.00;99.90;;;;;;5054419;28;20455;-80
2022/05/14 07:50:47;;;;;;;1.37;1.00;;;21.00;99.90;;;;;;5055975;28;20458;-81
2022/05/14 07:53:18;;;;;;;1.87;0.90;;;21.10;99.90;;;;;;5054590;28;20442;-79
2022/05/14 07:55:47;;;;;;;1.40;0.80;;;21.10;99.90;;;;;;5064076;28;20695;-80
2022/05/14 07:58:15;;;;;;;2.63;1.40;;;21.20;99.90;;;;;;5061660;28;20478;-79
2022/05/14 08:00:43;;;;;;;1.10;0.60;;;21.20;99.90;;;;;;5056345;28;20450;-78
2022/05/14 08:03:12;;;;;;;1.37;0.80;;;21.20;99.90;;;;;;5056517;28;20442;-78
2022/05/14 08:05:40;;;;;;;1.60;0.80;;;21.20;99.90;;;;;;5055893;28;20790;-80
2022/05/14 08:08:08;;;;;;;1.70;0.90;;;21.30;99.90;;;;;;5059315;28;20458;-79
2022/05/14 08:10:38;;;;;;;1.27;0.70;;;21.20;99.90;;;;;;5063386;28;20551;-80
2022/05/14 08:13:06;;;;;;;1.63;0.60;;;21.30;99.90;;;;;;5065700;28;20455;-79
2022/05/14 08:15:35;;;;;;;1.20;0.70;;;21.30;99.90;;;;;;5061062;28;20478;-79
2022/05/14 08:18:03;;;;;;;0.80;0.67;;;21.30;99.90;;;;;;5067547;28;20465;-79
2022/05/14 08:20:31;;;;;;;1.90;0.80;;;21.20;99.90;;;;;;5062834;28;21405;-77
2022/05/14 08:25:46;;;;;;;1.73;0.70;;;21.30;99.90;;;;;;5061243;28;21357;-79
2022/05/14 08:28:14;;;;;;;1.27;0.80;;;21.30;99.90;;;;;;5062216;28;20455;-79
2022/05/14 08:30:42;;;;;;;1.37;0.90;;;21.30;99.90;;;;;;5057131;28;20439;-80
2022/05/14 08:33:11;;;;;;;0.90;0.60;;;21.20;99.90;;;;;;5057900;28;20784;-79
2022/05/14 08:35:40;;;;;;;1.70;0.80;;;21.20;99.90;;;;;;5061047;28;21015;-79
2022/05/14 08:38:10;;;;;;;2.07;0.70;;;21.30;99.90;;;;;;5060180;28;20455;-79
2022/05/14 08:40:41;;;;;;;2.13;0.70;;;21.40;99.90;;;;;;5058142;28;20552;-78
2022/05/14 08:43:16;;;;;;;0.90;0.90;;;21.50;99.90;;;;;;5058860;28;20457;-80
2022/05/14 08:45:44;;;;;;;1.47;0.70;;;21.60;99.90;;;;;;5061741;28;20466;-77
2022/05/14 08:48:16;;;;;;;1.00;0.90;;;21.70;99.90;;;;;;5059838;28;20457;-78
2022/05/14 08:50:50;;;;;;;1.53;0.70;;;21.80;99.90;;;;;;5060186;28;20554;-77
2022/05/14 08:53:21;;;;;;;1.30;0.70;;;21.80;99.90;;;;;;5061094;28;20457;-79
2022/05/14 08:55:56;;;;;;;1.33;0.70;;;21.80;99.90;;;;;;5063529;28;20468;-79
2022/05/14 08:58:32;;;;;;;3.37;0.80;;;21.80;99.90;;;;;;5061039;28;20563;-77
2022/05/14 09:01:02;;;;;;;2.00;0.80;;;21.80;99.90;;;;;;5057771;28;20450;-78
2022/05/14 09:03:32;;;;;;;0.90;0.70;;;21.70;99.90;;;;;;5061317;28;20833;-78
2022/05/14 09:06:00;;;;;;;0.63;0.63;;;21.70;99.90;;;;;;5062882;28;21233;-78
2022/05/14 09:08:29;;;;;;;0.87;0.70;;;21.80;99.90;;;;;;5065252;28;20536;-78
2022/05/14 09:11:01;;;;;;;1.20;1.10;;;21.70;99.90;;;;;;5061333;28;20442;-78
2022/05/14 09:13:43;;;;;;;1.50;0.60;;;21.80;99.90;;;;;;5053687;28;20300;-80
2022/05/14 09:16:23;;;;;;;2.17;0.90;;;21.90;99.90;;;;;;5058786;28;20467;-78
2022/05/14 09:18:53;;;;;;;0.80;0.70;;;22.00;99.90;;;;;;5060030;28;20477;-78
2022/05/14 09:21:24;;;;;;;1.43;0.77;;;22.10;99.90;;;;;;5061674;28;20472;-76
2022/05/14 09:23:56;;;;;;;0.70;0.60;;;22.20;99.90;;;;;;5060239;28;20456;-77
2022/05/14 09:26:28;;;;;;;1.60;0.80;;;22.20;99.90;;;;;;5064714;28;20484;-79
2022/05/14 09:29:01;;;;;;;0.80;0.77;;;22.20;99.90;;;;;;5058374;28;20455;-79
2022/05/14 09:31:33;;;;;;;1.03;0.70;;;22.30;99.90;;;;;;5059666;28;20552;-78
2022/05/14 09:34:06;;;;;;;1.55;0.90;;;22.30;99.90;;;;;;5058556;28;20470;-78
2022/05/14 09:36:44;;;;;;;0.80;0.70;;;22.40;99.90;;;;;;5053916;28;20290;-76
2022/05/14 09:39:15;;;;;;;0.93;0.80;;;22.20;99.90;;;;;;5058685;28;20477;-78
2022/05/14 09:41:45;;;;;;;2.30;0.80;;;22.30;99.90;;;;;;5060806;28;20462;-77
2022/05/14 09:44:19;;;;;;;2.70;0.90;;;22.40;99.90;;;;;;5064140;28;20489;-77
2022/05/14 09:46:47;;;;;;;0.90;0.70;;;22.40;99.90;;;;;;5059636;28;20474;-82
2022/05/14 09:49:24;;;;;;;0.80;0.70;;;22.50;99.90;;;;;;5065396;28;20452;-79
2022/05/14 09:51:54;;;;;;;1.33;0.70;;;22.40;99.90;;;;;;5061368;28;20474;-79
2022/05/14 09:54:27;;;;;;;1.33;0.80;;;22.40;99.90;;;;;;5065616;28;21095;-79
2022/05/14 09:57:22;;;;;;;1.30;0.80;;;22.50;99.90;;;;;;5066804;28;20465;-79
2022/05/14 10:00:09;;;;;;;1.40;0.73;;;22.50;99.90;;;;;;5057304;28;20450;-79
2022/05/14 10:02:55;;;;;;;1.37;0.70;;;22.60;99.90;;;;;;5059124;28;20203;-79
2022/05/14 10:05:43;;;;;;;1.00;0.80;;;22.60;99.90;;;;;;5060069;28;20523;-79
2022/05/14 10:08:20;;;;;;;1.73;0.70;;;22.70;99.90;;;;;;5067075;28;20454;-79
2022/05/14 10:10:54;;;;;;;0.80;0.80;;;22.80;99.90;;;;;;5058303;28;20457;-79
2022/05/14 10:13:32;;;;;;;1.80;0.80;;;22.80;99.90;;;;;;5060166;28;20454;-79
2022/05/14 10:16:08;;;;;;;2.20;0.80;;;22.80;99.90;;;;;;5060515;28;20489;-80
2022/05/14 10:18:49;;;;;;;2.47;1.17;;;22.80;99.90;;;;;;5055559;28;20465;-80
2022/05/14 10:21:27;;;;;;;1.20;0.70;;;22.70;99.90;;;;;;5056190;28;20466;-79
2022/05/14 10:27:32;;;;;;;0.70;0.70;;;22.70;99.90;;;;;;5059152;28;20536;-79
2022/05/14 10:30:13;;;;;;;1.00;0.90;;;22.70;99.90;;;;;;5050674;28;20466;-80
2022/05/14 10:32:45;;;;;;;1.60;0.70;;;22.70;99.90;;;;;;5051646;28;20818;-80
2022/05/14 10:35:23;;;;;;;2.20;0.97;;;22.80;99.90;;;;;;5056909;28;20446;-79
2022/05/14 10:37:55;;;;;;;1.67;0.80;;;22.90;99.90;;;;;;5055973;28;20646;-79
2022/05/14 10:40:29;;;;;;;1.17;0.90;;;22.90;98.60;;;;;;5058293;28;21299;-78
2022/05/14 10:43:29;;;;;;;1.27;1.17;;;22.90;99.00;;;;;;5054653;28;20450;-79
2022/05/14 10:45:58;;;;;;;11.77;4.30;;;23.00;99.90;;;;;;5057162;28;20478;-79
2022/05/14 10:48:41;;;;;;;31.30;10.97;;;23.00;99.90;;;;;;5058945;28;20451;-78
2022/05/14 10:51:13;;;;;;;11.40;5.60;;;23.10;99.90;;;;;;5059876;28;21199;-79
2022/05/14 10:53:43;;;;;;;13.43;8.30;;;23.10;99.90;;;;;;5057742;28;20450;-79
2022/05/14 10:56:14;;;;;;;10.83;5.67;;;23.10;99.90;;;;;;5053877;28;20483;-80
2022/05/14 10:58:54;;;;;;;3.17;1.43;;;23.20;99.90;;;;;;5055512;28;20467;-80
2022/05/14 11:01:30;;;;;;;1.10;1.00;;;23.10;99.90;;;;;;5057133;28;20478;-79
2022/05/14 11:04:07;;;;;;;1.23;0.80;;;22.90;96.30;;;;;;5058117;28;20462;-79
2022/05/14 11:06:50;;;;;;;0.80;0.80;;;22.90;95.00;;;;;;5058952;28;20466;-79
2022/05/14 11:09:20;;;;;;;0.70;0.70;;;22.90;95.80;;;;;;5060072;28;20549;-79
2022/05/14 11:11:50;;;;;;;1.33;0.70;;;23.00;94.60;;;;;;5059827;28;20450;-77
2022/05/14 11:14:18;;;;;;;4.10;0.70;;;22.90;95.30;;;;;;5058367;28;20463;-79
2022/05/14 11:16:48;;;;;;;3.37;0.90;;;23.00;98.80;;;;;;5056772;28;20451;-79
2022/05/14 11:19:28;;;;;;;0.80;0.70;;;23.00;98.50;;;;;;5061039;28;20493;-79
2022/05/14 11:21:57;;;;;;;1.13;0.93;;;23.10;97.70;;;;;;5056541;28;20475;-79
2022/05/14 11:24:36;;;;;;;0.73;0.60;;;23.20;99.90;;;;;;5057492;28;20505;-80
2022/05/14 11:27:05;;;;;;;0.87;0.70;;;23.20;96.90;;;;;;5058266;28;20447;-79
2022/05/14 11:29:47;;;;;;;0.93;0.70;;;23.20;97.30;;;;;;5060680;28;20447;-80
2022/05/14 11:32:19;;;;;;;1.60;0.60;;;23.20;96.50;;;;;;5060255;28;20492;-79
2022/05/14 11:34:55;;;;;;;0.73;0.67;;;23.20;99.60;;;;;;5059170;28;22764;-77
2022/05/14 11:37:32;;;;;;;0.80;0.60;;;23.30;99.50;;;;;;5060696;28;20457;-79
2022/05/14 11:40:12;;;;;;;1.50;0.77;;;23.40;99.90;;;;;;5058757;28;20559;-80
2022/05/14 11:42:43;;;;;;;2.20;1.20;;;23.50;99.90;;;;;;5061491;28;20470;-77
2022/05/14 11:45:16;;;;;;;1.03;0.70;;;23.50;99.90;;;;;;5062896;28;20466;-81
2022/05/14 11:47:55;;;;;;;1.20;0.70;;;23.50;99.90;;;;;;5069911;28;20453;-81
2022/05/14 11:50:34;;;;;;;1.87;1.63;;;23.60;99.90;;;;;;5068626;28;20451;-79
2022/05/14 11:53:10;;;;;;;1.60;0.70;;;23.60;99.90;;;;;;5059355;28;20459;-80
2022/05/14 11:55:44;;;;;;;1.30;0.80;;;23.60;99.90;;;;;;5066156;28;21140;-79
2022/05/14 11:58:18;;;;;;;1.90;0.87;;;23.50;97.50;;;;;;5065313;28;20446;-78
2022/05/14 12:00:49;;;;;;;0.83;0.83;;;23.30;95.90;;;;;;5067494;28;20492;-81
2022/05/14 12:03:23;;;;;;;0.80;0.70;;;23.30;97.20;;;;;;5062142;28;20470;-80
2022/05/14 12:05:58;;;;;;;1.57;0.70;;;23.40;98.20;;;;;;5068322;28;20483;-80
2022/05/14 12:08:53;;;;;;;0.80;0.60;;;23.50;98.90;;;;;;5066657;28;20567;-80
2022/05/14 12:11:31;;;;;;;0.80;0.70;;;23.60;99.90;;;;;;5076579;28;20453;-80
2022/05/14 12:14:06;;;;;;;0.73;0.73;;;23.70;99.90;;;;;;5068141;28;20511;-79
2022/05/14 12:16:37;;;;;;;0.80;0.80;;;23.70;99.90;;;;;;5069924;28;20450;-79
2022/05/14 12:19:11;;;;;;;0.63;0.63;;;23.70;99.90;;;;;;5077052;28;20456;-79
2022/05/14 12:21:41;;;;;;;1.00;0.60;;;23.80;99.90;;;;;;5067573;28;20536;-81
2022/05/14 12:24:20;;;;;;;0.60;0.60;;;23.90;99.90;;;;;;5068792;28;20455;-80
2022/05/14 12:26:49;;;;;;;0.60;0.60;;;23.90;99.90;;;;;;5058628;28;20965;-79
2022/05/14 12:29:21;;;;;;;2.60;0.90;;;24.00;99.90;;;;;;5068216;28;20461;-80
2022/05/14 12:34:44;;;;;;;0.90;0.90;;;24.00;99.90;;;;;;5066790;28;21041;-82
2022/05/14 12:37:28;;;;;;;0.83;0.70;;;24.00;99.90;;;;;;5067610;28;20447;-82
2022/05/14 12:39:58;;;;;;;1.07;0.70;;;24.00;99.90;;;;;;5068121;28;20508;-80
2022/05/14 12:42:34;;;;;;;1.30;0.60;;;24.00;99.90;;;;;;5064075;28;20603;-80
2022/05/14 12:45:05;;;;;;;0.80;0.80;;;24.00;99.90;;;;;;5070293;28;20506;-80
2022/05/14 12:47:37;;;;;;;1.00;0.90;;;24.10;99.90;;;;;;5068973;28;20478;-80
2022/05/14 12:50:17;;;;;;;1.67;0.90;;;24.10;99.90;;;;;;5070429;28;20504;-81
2022/05/14 12:52:55;;;;;;;1.50;0.70;;;24.20;99.90;;;;;;5065455;28;20453;-79
2022/05/14 12:55:25;;;;;;;0.70;0.60;;;24.20;99.90;;;;;;5059112;28;20469;-79
2022/05/14 12:57:55;;;;;;;0.93;0.80;;;24.20;99.90;;;;;;5066764;28;20435;-79
2022/05/14 13:00:24;;;;;;;0.80;0.80;;;24.20;99.90;;;;;;5064518;28;20957;-80
2022/05/14 13:02:59;;;;;;;0.63;0.63;;;24.30;99.90;;;;;;5070308;28;20978;-80
2022/05/14 13:05:32;;;;;;;0.90;0.70;;;24.20;99.90;;;;;;5069955;28;20476;-80
2022/05/14 13:08:08;;;;;;;1.70;0.73;;;24.30;99.90;;;;;;5069596;28;20461;-80
2022/05/14 13:10:38;;;;;;;0.70;0.70;;;24.20;99.90;;;;;;5073371;28;20456;-79
2022/05/14 13:13:09;;;;;;;1.57;0.70;;;24.20;99.50;;;;;;5057252;28;20457;-80
2022/05/14 13:15:40;;;;;;;0.70;0.70;;;24.20;99.90;;;;;;5067849;28;20467;-79
2022/05/14 13:18:20;;;;;;;0.80;0.70;;;24.20;99.90;;;;;;5070228;28;21056;-82
2022/05/14 13:20:56;;;;;;;0.70;0.70;;;24.20;99.90;;;;;;5067700;28;20478;-79
2022/05/14 13:23:25;;;;;;;1.90;0.80;;;24.20;99.90;;;;;;5069800;28;20462;-80
2022/05/14 13:26:00;;;;;;;1.00;0.70;;;24.30;99.90;;;;;;5068620;28;20484;-80
2022/05/14 13:28:31;;;;;;;1.70;0.80;;;24.30;99.90;;;;;;5068767;28;20465;-79
2022/05/14 13:31:01;;;;;;;0.80;0.70;;;24.40;99.90;;;;;;5063020;28;21293;-79